createdAt,value
2019-03-26T00:01:10.794Z,93.10
2019-03-26T00:03:40.635Z,92.90
2019-03-26T00:06:10.353Z,93.20
2019-03-26T00:08:40.088Z,93.30
2019-03-26T00:11:09.779Z,92.90
2019-03-26T00:13:39.450Z,93.20
2019-03-26T00:16:09.154Z,93.20
2019-03-26T00:18:38.786Z,92.80
2019-03-26T00:21:08.585Z,92.90
2019-03-26T00:23:38.312Z,92.90
2019-03-26T00:26:08.052Z,93.00
2019-03-26T00:28:37.677Z,93.00
2019-03-26T00:31:07.504Z,92.60
2019-03-26T00:33:37.325Z,92.90
2019-03-26T00:36:07.129Z,93.10
2019-03-26T00:38:36.925Z,93.10
2019-03-26T00:41:06.829Z,93.10
2019-03-26T00:43:36.545Z,93.00
2019-03-26T00:46:06.233Z,93.30
2019-03-26T00:48:35.851Z,92.90
2019-03-26T00:51:05.567Z,93.30
2019-03-26T00:53:35.370Z,93.00
2019-03-26T00:56:05.059Z,93.00
2019-03-26T00:58:34.822Z,93.30
2019-03-26T01:01:05.351Z,92.80
2019-03-26T01:03:35.060Z,92.80
2019-03-26T01:06:05.798Z,92.80
2019-03-26T01:08:35.460Z,93.10
2019-03-26T01:11:05.424Z,93.10
2019-03-26T01:13:35.150Z,93.00
2019-03-26T01:16:05.188Z,93.20
2019-03-26T01:18:34.886Z,93.30
2019-03-26T01:21:05.012Z,92.80
2019-03-26T01:23:34.802Z,93.20
2019-03-26T01:26:04.616Z,93.30
2019-03-26T01:28:34.452Z,93.20
2019-03-26T01:31:04.220Z,92.60
2019-03-26T01:33:33.988Z,92.50
2019-03-26T01:36:03.901Z,93.10
2019-03-26T01:38:33.529Z,92.60
2019-03-26T01:41:03.270Z,93.20
2019-03-26T01:43:33.180Z,92.70
2019-03-26T01:46:02.979Z,93.00
2019-03-26T01:48:32.804Z,93.00
2019-03-26T01:51:02.553Z,92.80
2019-03-26T01:53:32.217Z,92.60
2019-03-26T01:56:01.923Z,92.70
2019-03-26T01:58:31.653Z,92.50
2019-03-26T02:01:01.758Z,92.80
2019-03-26T02:03:31.495Z,93.10
2019-03-26T02:06:01.195Z,93.00
2019-03-26T02:08:30.877Z,93.00
2019-03-26T02:11:00.691Z,93.20
2019-03-26T02:13:30.503Z,93.30
2019-03-26T02:16:00.506Z,93.10
2019-03-26T02:18:30.237Z,93.50
2019-03-26T02:21:00.200Z,93.80
2019-03-26T02:23:29.826Z,93.70
2019-03-26T02:25:59.572Z,93.30
2019-03-26T02:28:29.270Z,93.50
2019-03-26T02:30:59.005Z,94.10
2019-03-26T02:33:29.389Z,94.10
2019-03-26T02:35:59.052Z,93.80
2019-03-26T02:38:28.668Z,94.20
2019-03-26T02:40:58.396Z,93.80
2019-03-26T02:43:28.203Z,94.30
2019-03-26T02:45:57.952Z,94.20
2019-03-26T02:48:27.574Z,94.40
2019-03-26T02:50:57.227Z,94.10
2019-03-26T02:53:27.098Z,94.30
2019-03-26T02:55:59.711Z,94.60
2019-03-26T02:58:29.434Z,94.70
2019-03-26T03:00:59.174Z,94.80
2019-03-26T03:03:28.839Z,95.00
2019-03-26T03:05:58.566Z,94.80
2019-03-26T03:08:28.366Z,95.20
2019-03-26T03:10:58.103Z,95.20
2019-03-26T03:13:27.949Z,95.20
2019-03-26T03:15:57.888Z,95.50
2019-03-26T03:18:27.739Z,95.60
2019-03-26T03:20:57.694Z,95.40
2019-03-26T03:23:29.058Z,95.50
2019-03-26T03:26:02.194Z,95.70
2019-03-26T03:28:40.299Z,95.50
2019-03-26T03:31:09.959Z,95.50
2019-03-26T03:33:39.721Z,95.40
2019-03-26T03:36:09.392Z,95.60
2019-03-26T03:38:41.363Z,95.50
2019-03-26T03:41:10.856Z,95.70
2019-03-26T03:43:40.554Z,95.90
2019-03-26T03:46:10.367Z,95.90
2019-03-26T03:48:40.153Z,95.70
2019-03-26T03:51:11.360Z,95.80
2019-03-26T03:53:41.052Z,95.80
2019-03-26T03:56:11.526Z,95.90
2019-03-26T03:58:43.908Z,95.90
2019-03-26T04:01:13.650Z,95.70
2019-03-26T04:03:43.294Z,96.00
2019-03-26T04:06:13.164Z,95.90
2019-03-26T04:08:42.920Z,95.90
2019-03-26T04:11:12.648Z,96.10
2019-03-26T04:13:42.472Z,95.90
2019-03-26T04:16:12.106Z,96.00
2019-03-26T04:18:41.892Z,96.00
2019-03-26T04:21:11.557Z,95.80
2019-03-26T04:23:41.221Z,96.30
2019-03-26T04:26:11.063Z,96.00
2019-03-26T04:28:40.665Z,96.10
2019-03-26T04:31:10.874Z,96.10
2019-03-26T04:33:40.566Z,96.30
2019-03-26T04:36:24.495Z,96.30
2019-03-26T04:38:41.701Z,96.10
2019-03-26T04:41:11.358Z,96.10
2019-03-26T04:43:40.985Z,95.80
2019-03-26T04:46:10.710Z,95.80
2019-03-26T04:48:40.400Z,95.80
2019-03-26T04:51:10.063Z,96.10
2019-03-26T04:53:39.826Z,96.00
2019-03-26T04:56:09.506Z,96.00
2019-03-26T04:58:39.189Z,95.70
2019-03-26T05:01:08.877Z,95.90
2019-03-26T05:03:38.656Z,95.90
2019-03-26T05:06:08.361Z,96.00
2019-03-26T05:08:38.316Z,96.40
2019-03-26T05:11:07.945Z,95.90
2019-03-26T05:13:37.618Z,96.40
2019-03-26T05:16:07.386Z,96.20
2019-03-26T05:18:37.069Z,96.40
2019-03-26T05:21:06.754Z,96.30
2019-03-26T05:23:36.382Z,96.40
2019-03-26T05:26:06.187Z,96.50
2019-03-26T05:28:36.097Z,96.70
2019-03-26T05:31:05.721Z,96.70
2019-03-26T05:33:36.943Z,96.80
2019-03-26T05:36:08.341Z,97.00
2019-03-26T05:38:38.157Z,97.00
2019-03-26T05:41:10.388Z,96.90
2019-03-26T05:43:39.262Z,97.00
2019-03-26T05:46:09.171Z,97.10
2019-03-26T05:48:38.827Z,97.10
2019-03-26T05:51:08.588Z,97.00
2019-03-26T05:53:38.359Z,97.30
2019-03-26T05:56:07.967Z,97.30
2019-03-26T05:58:37.690Z,97.50
2019-03-26T06:01:07.497Z,97.50
2019-03-26T06:03:37.313Z,97.50
2019-03-26T06:06:07.075Z,97.50
2019-03-26T06:08:36.942Z,97.60
2019-03-26T06:11:06.603Z,97.70
2019-03-26T06:13:36.290Z,98.40
2019-03-26T06:16:06.073Z,98.40
2019-03-26T06:18:35.759Z,98.30
2019-03-26T06:21:05.505Z,98.40
2019-03-26T06:23:35.243Z,98.30
2019-03-26T06:26:08.265Z,98.30
2019-03-26T06:28:42.374Z,98.20
2019-03-26T06:31:12.516Z,98.10
2019-03-26T06:33:42.293Z,98.20
2019-03-26T06:36:11.991Z,98.30
2019-03-26T06:38:41.848Z,98.40
2019-03-26T06:41:11.489Z,98.60
2019-03-26T06:43:41.369Z,98.60
2019-03-26T06:46:11.327Z,99.00
2019-03-26T06:48:41.129Z,99.10
2019-03-26T06:51:12.323Z,99.20
2019-03-26T06:53:42.010Z,99.40
2019-03-26T06:56:11.680Z,99.10
2019-03-26T06:58:41.377Z,99.40
2019-03-26T07:01:11.185Z,99.30
2019-03-26T07:03:40.876Z,99.60
2019-03-26T07:06:10.627Z,99.50
2019-03-26T07:08:40.319Z,99.70
2019-03-26T07:11:10.022Z,99.90
2019-03-26T07:13:39.682Z,99.50
2019-03-26T07:16:09.615Z,99.80
2019-03-26T07:18:39.433Z,99.90
2019-03-26T07:21:09.135Z,99.70
2019-03-26T07:23:38.951Z,99.70
2019-03-26T07:26:08.688Z,99.70
2019-03-26T07:28:38.724Z,99.70
2019-03-26T07:31:08.512Z,99.50
2019-03-26T07:33:38.324Z,99.50
2019-03-26T07:36:08.268Z,99.60
2019-03-26T07:38:40.696Z,99.90
2019-03-26T07:41:10.446Z,99.60
2019-03-26T07:43:40.201Z,99.70
2019-03-26T07:46:09.918Z,99.50
2019-03-26T07:48:39.568Z,99.20
2019-03-26T07:51:09.328Z,99.20
2019-03-26T07:53:42.192Z,98.90
2019-03-26T07:56:12.162Z,99.00
2019-03-26T07:58:42.055Z,98.80
2019-03-26T08:01:11.978Z,98.60
2019-03-26T08:03:42.811Z,98.10
2019-03-26T08:06:12.691Z,98.00
2019-03-26T08:08:42.598Z,98.10
2019-03-26T08:11:12.458Z,98.10
2019-03-26T08:13:42.348Z,97.90
2019-03-26T08:16:12.016Z,97.90
2019-03-26T08:18:41.763Z,98.00
2019-03-26T08:21:11.454Z,97.70
2019-03-26T08:23:41.202Z,97.80
2019-03-26T08:26:10.991Z,97.50
2019-03-26T08:28:40.657Z,97.50
2019-03-26T08:31:10.471Z,97.50
2019-03-26T08:33:40.237Z,97.50
2019-03-26T08:36:09.981Z,97.20
2019-03-26T08:38:39.714Z,97.00
2019-03-26T08:41:09.599Z,97.10
2019-03-26T08:43:40.997Z,97.10
2019-03-26T08:46:10.595Z,97.20
2019-03-26T08:48:40.214Z,96.90
2019-03-26T08:51:09.841Z,96.90
2019-03-26T08:53:39.574Z,96.80
2019-03-26T08:56:09.368Z,96.50
2019-03-26T08:58:39.365Z,96.70
2019-03-26T09:01:09.145Z,96.60
2019-03-26T09:03:38.819Z,96.70
2019-03-26T09:06:08.804Z,96.50
2019-03-26T09:08:38.655Z,96.10
2019-03-26T09:11:08.432Z,96.30
2019-03-26T09:13:38.311Z,96.30
2019-03-26T09:16:08.272Z,96.30
2019-03-26T09:18:38.148Z,96.20
2019-03-26T09:21:08.474Z,96.10
2019-03-26T09:23:38.234Z,95.90
2019-03-26T09:26:08.130Z,95.80
2019-03-26T09:28:37.834Z,95.80
2019-03-26T09:31:07.798Z,95.80
2019-03-26T09:33:38.661Z,95.90
2019-03-26T09:36:08.502Z,95.80
2019-03-26T09:38:39.677Z,95.80
2019-03-26T09:41:09.492Z,95.60
2019-03-26T09:43:39.262Z,95.70
2019-03-26T09:46:09.087Z,95.80
2019-03-26T09:48:38.790Z,95.70
2019-03-26T09:51:10.763Z,95.80
2019-03-26T09:53:39.902Z,95.80
2019-03-26T09:56:09.733Z,95.70
2019-03-26T09:58:40.965Z,95.70
2019-03-26T10:01:10.809Z,95.90
2019-03-26T10:03:40.481Z,95.80
2019-03-26T10:06:22.589Z,95.90
2019-03-26T10:08:52.229Z,95.80
2019-03-26T10:11:14.063Z,95.50
2019-03-26T10:13:43.746Z,95.70
2019-03-26T10:16:13.553Z,95.40
2019-03-26T10:18:43.391Z,95.40
2019-03-26T10:21:13.122Z,95.50
2019-03-26T10:23:42.927Z,95.30
2019-03-26T10:26:12.662Z,95.40
2019-03-26T10:28:42.323Z,95.50
2019-03-26T10:31:13.799Z,95.40
2019-03-26T10:33:43.639Z,95.80
2019-03-26T10:36:13.683Z,95.30
2019-03-26T10:38:43.380Z,95.10
2019-03-26T10:41:13.397Z,95.20
2019-03-26T10:43:43.130Z,95.30
2019-03-26T10:46:12.869Z,95.30
2019-03-26T10:48:42.619Z,95.50
2019-03-26T10:51:12.296Z,95.70
2019-03-26T10:53:42.200Z,95.80
2019-03-26T10:56:11.970Z,95.50
2019-03-26T10:58:41.810Z,95.30
2019-03-26T11:01:11.636Z,95.30
2019-03-26T11:03:41.438Z,95.00
2019-03-26T11:06:12.592Z,94.90
2019-03-26T11:08:45.028Z,95.10
2019-03-26T11:11:13.655Z,94.90
2019-03-26T11:13:43.383Z,94.90
2019-03-26T11:16:13.217Z,94.60
2019-03-26T11:18:42.952Z,94.60
2019-03-26T11:21:12.661Z,94.30
2019-03-26T11:23:42.494Z,94.20
2019-03-26T11:26:12.292Z,94.70
2019-03-26T11:28:42.060Z,94.40
2019-03-26T11:31:11.810Z,94.60
2019-03-26T11:33:41.516Z,94.20
2019-03-26T11:36:11.343Z,94.30
2019-03-26T11:38:42.566Z,94.40
2019-03-26T11:41:12.292Z,94.80
2019-03-26T11:43:42.100Z,94.20
2019-03-26T11:46:11.779Z,94.40
2019-03-26T11:48:41.639Z,94.30
2019-03-26T11:51:11.344Z,94.20
2019-03-26T11:53:41.152Z,94.50
2019-03-26T11:56:10.856Z,94.40
2019-03-26T11:58:40.744Z,94.30
2019-03-26T12:01:10.680Z,93.80
2019-03-26T12:03:40.445Z,93.90
2019-03-26T12:06:10.216Z,93.60
2019-03-26T12:08:40.235Z,93.50
2019-03-26T12:11:09.835Z,93.60
2019-03-26T12:13:39.576Z,94.20
2019-03-26T12:16:09.460Z,94.10
2019-03-26T12:18:39.418Z,94.40
2019-03-26T12:21:09.208Z,94.20
2019-03-26T12:23:38.954Z,94.40
2019-03-26T12:26:08.854Z,94.70
2019-03-26T12:28:38.461Z,95.00
2019-03-26T12:31:10.999Z,95.40
2019-03-26T12:33:40.722Z,95.80
2019-03-26T12:36:10.528Z,97.10
2019-03-26T12:38:40.260Z,96.10
2019-03-26T12:41:11.483Z,95.10
2019-03-26T12:43:41.196Z,94.20
2019-03-26T12:46:10.890Z,93.90
2019-03-26T12:48:43.286Z,93.40
2019-03-26T12:51:13.632Z,92.40
2019-03-26T12:53:43.377Z,92.30
2019-03-26T12:56:13.060Z,92.30
2019-03-26T12:58:42.799Z,92.20
2019-03-26T13:01:12.461Z,92.10
2019-03-26T13:03:42.381Z,92.00
2019-03-26T13:06:12.611Z,91.90
2019-03-26T13:08:42.599Z,92.00
2019-03-26T13:11:12.942Z,91.90
2019-03-26T13:13:42.727Z,92.10
2019-03-26T13:16:12.419Z,92.20
2019-03-26T13:18:42.169Z,92.00
2019-03-26T13:21:11.849Z,91.80
2019-03-26T13:23:41.476Z,91.70
2019-03-26T13:26:11.160Z,91.70
2019-03-26T13:28:41.023Z,91.70
2019-03-26T13:31:10.709Z,91.50
2019-03-26T13:33:40.475Z,91.70
2019-03-26T13:36:10.354Z,91.70
2019-03-26T13:38:40.248Z,91.60
2019-03-26T13:41:11.480Z,91.50
2019-03-26T13:43:41.417Z,91.30
2019-03-26T13:46:11.191Z,91.40
2019-03-26T13:48:40.903Z,91.50
2019-03-26T13:51:10.714Z,91.30
2019-03-26T13:53:40.484Z,91.40
2019-03-26T13:56:11.783Z,91.50
2019-03-26T13:58:41.427Z,91.40
2019-03-26T14:01:11.167Z,91.60
2019-03-26T14:03:41.103Z,91.50
2019-03-26T14:06:11.113Z,91.50
2019-03-26T14:08:47.927Z,91.60
2019-03-26T14:11:15.602Z,91.50
2019-03-26T14:13:45.405Z,91.40
2019-03-26T14:16:15.171Z,91.40
2019-03-26T14:18:45.199Z,91.30
2019-03-26T14:21:16.472Z,91.30
2019-03-26T14:23:46.269Z,91.50
2019-03-26T14:26:16.627Z,91.20
2019-03-26T14:28:46.347Z,91.30
2019-03-26T14:31:16.175Z,91.40
2019-03-26T14:33:46.127Z,91.30
2019-03-26T14:36:16.014Z,91.50
2019-03-26T14:38:45.630Z,91.50
2019-03-26T14:41:15.444Z,91.40
2019-03-26T14:43:45.187Z,91.20
2019-03-26T14:46:14.968Z,91.50
2019-03-26T14:48:44.868Z,91.40
2019-03-26T14:51:14.544Z,91.40
2019-03-26T14:53:44.298Z,91.70
2019-03-26T14:56:14.111Z,91.50
2019-03-26T14:58:43.830Z,91.60
2019-03-26T15:01:13.574Z,91.50
2019-03-26T15:03:43.434Z,91.60
2019-03-26T15:06:14.760Z,91.40
2019-03-26T15:08:44.738Z,91.50
2019-03-26T15:11:14.562Z,91.20
2019-03-26T15:13:44.346Z,91.70
2019-03-26T15:16:14.272Z,91.40
2019-03-26T15:18:44.071Z,91.40
2019-03-26T15:21:13.989Z,91.30
2019-03-26T15:23:44.157Z,91.50
2019-03-26T15:26:14.938Z,91.50
2019-03-26T15:28:44.644Z,91.60
2019-03-26T15:31:14.750Z,91.60
2019-03-26T15:33:44.585Z,91.60
2019-03-26T15:36:14.404Z,91.80
2019-03-26T15:38:44.244Z,91.40
2019-03-26T15:41:21.582Z,91.80
2019-03-26T15:43:45.380Z,92.10
2019-03-26T15:46:15.160Z,91.90
2019-03-26T15:48:45.445Z,92.00
2019-03-26T15:51:15.122Z,91.80
2019-03-26T15:53:45.187Z,92.10
2019-03-26T15:56:15.353Z,92.00
2019-03-26T15:58:45.148Z,92.00
2019-03-26T16:01:14.924Z,92.10
2019-03-26T16:03:44.779Z,92.00
2019-03-26T16:06:14.616Z,92.20
2019-03-26T16:08:44.414Z,92.20
2019-03-26T16:11:14.327Z,92.40
2019-03-26T16:13:44.256Z,92.70
2019-03-26T16:16:14.118Z,92.90
2019-03-26T16:18:44.001Z,93.00
2019-03-26T16:21:13.753Z,92.60
2019-03-26T16:23:43.529Z,93.20
2019-03-26T16:26:13.441Z,93.00
2019-03-26T16:28:43.059Z,93.20
2019-03-26T16:31:12.791Z,93.20
2019-03-26T16:33:42.556Z,93.30
2019-03-26T16:36:12.401Z,93.20
2019-03-26T16:38:42.128Z,93.40
2019-03-26T16:41:11.871Z,93.50
2019-03-26T16:43:41.701Z,93.60
2019-03-26T16:46:11.474Z,93.60
2019-03-26T16:48:41.808Z,93.70
2019-03-26T16:51:15.093Z,93.60
2019-03-26T16:53:44.915Z,93.70
2019-03-26T16:56:14.711Z,93.70
2019-03-26T16:58:44.501Z,93.80
2019-03-26T17:01:14.323Z,93.80
2019-03-26T17:03:44.143Z,93.90
2019-03-26T17:06:13.972Z,94.10
2019-03-26T17:08:43.728Z,94.20
2019-03-26T17:11:13.431Z,94.00
2019-03-26T17:13:43.432Z,94.10
2019-03-26T17:16:14.776Z,94.10
2019-03-26T17:18:44.710Z,94.10
2019-03-26T17:21:14.459Z,94.10
2019-03-26T17:23:44.270Z,94.30
2019-03-26T17:26:15.605Z,94.20
2019-03-26T17:28:45.620Z,94.30
2019-03-26T17:31:15.722Z,94.20
2019-03-26T17:33:45.598Z,94.30
2019-03-26T17:36:15.405Z,94.60
2019-03-26T17:38:47.648Z,94.70
2019-03-26T17:41:17.372Z,94.90
2019-03-26T17:43:47.146Z,95.20
2019-03-26T17:46:16.962Z,95.50
2019-03-26T17:48:46.734Z,95.40
2019-03-26T17:51:16.474Z,95.50
2019-03-26T17:53:46.277Z,95.80
2019-03-26T17:56:16.186Z,96.00
2019-03-26T17:58:45.963Z,95.90
2019-03-26T18:01:15.855Z,95.80
2019-03-26T18:03:45.626Z,95.80
2019-03-26T18:06:15.641Z,96.20
2019-03-26T18:08:46.832Z,95.80
2019-03-26T18:11:16.667Z,95.90
2019-03-26T18:13:46.485Z,96.20
2019-03-26T18:16:16.390Z,96.30
2019-03-26T18:18:54.906Z,96.50
2019-03-26T18:21:23.937Z,96.00
2019-03-26T18:23:53.958Z,96.30
2019-03-26T18:26:23.942Z,96.20
2019-03-26T18:28:55.513Z,96.30
2019-03-26T18:31:25.377Z,96.40
2019-03-26T18:33:55.275Z,96.50
2019-03-26T18:36:25.028Z,96.50
2019-03-26T18:38:55.001Z,96.60
2019-03-26T18:41:26.334Z,96.60
2019-03-26T18:43:56.135Z,96.70
2019-03-26T18:46:25.948Z,96.60
2019-03-26T18:48:55.880Z,96.60
2019-03-26T18:51:25.596Z,96.60
2019-03-26T18:53:57.717Z,96.90
2019-03-26T18:56:27.755Z,97.00
2019-03-26T18:58:59.107Z,96.90
2019-03-26T19:01:29.015Z,96.90
2019-03-26T19:03:58.804Z,96.20
2019-03-26T19:06:28.809Z,96.90
2019-03-26T19:08:58.850Z,97.10
2019-03-26T19:11:28.654Z,96.70
2019-03-26T19:13:58.552Z,96.60
2019-03-26T19:16:28.776Z,97.20
2019-03-26T19:19:00.537Z,97.20
2019-03-26T19:21:30.460Z,96.90
2019-03-26T19:24:04.574Z,97.20
2019-03-26T19:26:31.815Z,97.30
2019-03-26T19:29:01.773Z,97.20
2019-03-26T19:31:31.898Z,97.10
2019-03-26T19:34:01.771Z,97.60
2019-03-26T19:36:31.727Z,97.30
2019-03-26T19:39:01.735Z,97.40
2019-03-26T19:41:33.050Z,97.30
2019-03-26T19:44:02.963Z,96.90
2019-03-26T19:46:32.884Z,97.30
2019-03-26T19:49:02.818Z,97.30
2019-03-26T19:51:32.633Z,97.60
2019-03-26T19:54:02.438Z,97.80
2019-03-26T19:56:32.209Z,97.20
2019-03-26T19:59:02.031Z,97.30
2019-03-26T20:01:31.807Z,97.40
2019-03-26T20:04:02.003Z,97.50
2019-03-26T20:06:31.652Z,97.70
2019-03-26T20:09:01.393Z,97.80
2019-03-26T20:11:31.095Z,97.70
2019-03-26T20:14:01.072Z,98.10
2019-03-26T20:16:41.286Z,98.20
2019-03-26T20:19:02.355Z,98.40
2019-03-26T20:21:32.164Z,97.80
2019-03-26T20:24:02.020Z,97.70
2019-03-26T20:26:31.820Z,98.20
2019-03-26T20:29:01.465Z,97.80
2019-03-26T20:31:31.252Z,98.30
2019-03-26T20:34:01.011Z,98.20
2019-03-26T20:36:30.767Z,97.90
2019-03-26T20:39:00.458Z,98.10
2019-03-26T20:41:30.216Z,98.30
2019-03-26T20:43:59.851Z,98.40
2019-03-26T20:46:29.832Z,98.40
2019-03-26T20:48:59.548Z,98.60
2019-03-26T20:51:29.395Z,98.20
2019-03-26T20:53:59.322Z,98.20
2019-03-26T20:56:29.828Z,98.60
2019-03-26T20:58:59.657Z,98.50
2019-03-26T21:01:29.412Z,98.00
2019-03-26T21:03:59.221Z,98.50
2019-03-26T21:06:29.030Z,98.50
2019-03-26T21:08:58.881Z,98.60
2019-03-26T21:11:28.591Z,98.10
2019-03-26T21:13:58.410Z,98.40
2019-03-26T21:16:28.124Z,98.40
2019-03-26T21:18:59.510Z,98.60
2019-03-26T21:21:29.316Z,98.50
2019-03-26T21:23:59.115Z,98.60
2019-03-26T21:26:28.943Z,98.70
2019-03-26T21:28:58.707Z,98.60
2019-03-26T21:31:28.587Z,98.70
2019-03-26T21:33:58.405Z,98.70
2019-03-26T21:36:28.201Z,98.40
2019-03-26T21:38:58.133Z,98.80
2019-03-26T21:41:27.899Z,98.90
2019-03-26T21:44:04.043Z,98.70
2019-03-26T21:46:29.264Z,98.90
2019-03-26T21:48:59.045Z,98.70
2019-03-26T21:51:28.707Z,98.30
2019-03-26T21:53:58.398Z,98.70
2019-03-26T21:56:28.213Z,98.70
2019-03-26T21:58:57.835Z,98.70
2019-03-26T22:01:27.595Z,98.80
2019-03-26T22:03:57.341Z,98.40
2019-03-26T22:06:27.013Z,98.40
2019-03-26T22:08:56.687Z,98.50
2019-03-26T22:11:26.408Z,98.70
2019-03-26T22:13:56.278Z,98.80
2019-03-26T22:16:26.127Z,98.70
2019-03-26T22:18:55.783Z,98.80
2019-03-26T22:21:25.541Z,98.90
2019-03-26T22:23:55.358Z,98.60
2019-03-26T22:26:25.154Z,98.80
2019-03-26T22:28:54.899Z,99.10
2019-03-26T22:31:24.706Z,99.00
2019-03-26T22:33:54.464Z,99.30
2019-03-26T22:36:24.274Z,99.30
2019-03-26T22:38:54.099Z,99.40
2019-03-26T22:41:23.867Z,99.10
2019-03-26T22:43:55.090Z,99.20
2019-03-26T22:46:25.183Z,99.10
2019-03-26T22:48:54.869Z,99.30
2019-03-26T22:51:24.641Z,98.70
2019-03-26T22:53:54.462Z,98.50
2019-03-26T22:56:24.307Z,98.60
2019-03-26T22:58:54.058Z,99.30
2019-03-26T23:01:24.216Z,98.90
2019-03-26T23:03:54.019Z,99.20
2019-03-26T23:06:23.824Z,99.00
2019-03-26T23:08:53.620Z,99.00
2019-03-26T23:11:23.340Z,99.30
2019-03-26T23:13:53.039Z,99.50
2019-03-26T23:16:23.018Z,99.00
2019-03-26T23:18:52.847Z,99.10
2019-03-26T23:21:22.634Z,98.90
2019-03-26T23:23:52.791Z,99.30
2019-03-26T23:26:22.489Z,99.30
2019-03-26T23:28:52.279Z,98.70
2019-03-26T23:31:22.227Z,99.10
2019-03-26T23:33:51.993Z,98.90
2019-03-26T23:36:21.951Z,99.00
2019-03-26T23:38:51.661Z,98.90
2019-03-26T23:41:21.415Z,99.40
2019-03-26T23:43:51.112Z,99.20
2019-03-26T23:46:20.854Z,99.20
2019-03-26T23:48:50.543Z,99.20
2019-03-26T23:51:20.356Z,99.00
2019-03-26T23:53:50.264Z,98.80
2019-03-26T23:56:21.093Z,99.70
2019-03-26T23:58:50.715Z,99.50
